Eurocargo Venezia — IBKS — position and weather

sailwx.info

Track history (hours):
 
Tides and Currents Weather Stations Pressure Air Temp Water Temp Dewpoint Dewpoint Depression Visibility Wind Speed Wind Dir Waves Ship Positions

Eurocargo Venezia

Last reported at 2015-Jan-26 01:32 UTC. Time now 2015-Jan-26 20:29 UTC.
Position N 38°04' E 015°32'.

Length 200 m; draft 7.4 m.

Type: Ship (hazmat cat A). MMSI: 247297200.

Date/timePositionNaut miles runAvg speedWind from/ knotsBaromVisibWave heightAir tempDewpointWater temp
2015-Jan-26 01:32N 38°04' E 015°32'1614.6
2015-Jan-26 00:25N 38°19' E 015°38'13917.4
2015-Jan-25 16:26N 40°17' E 014°03'1517.3
2015-Jan-25 15:34N 40°29' E 013°51'1717.2
2015-Jan-25 14:33N 40°43' E 013°38'1716.5
2015-Jan-25 13:32N 40°56' E 013°23'16217.1
2015-Jan-25 04:05N 42°42' E 010°39'1417.4
2015-Jan-25 03:18N 42°54' E 010°29'1317.5
2015-Jan-25 02:33N 43°05' E 010°20'1717.3
2015-Jan-25 01:34N 43°20' E 010°09'1717.0
2015-Jan-25 00:34N 43°33' E 009°54'1716.8
2015-Jan-24 23:34N 43°45' E 009°37'1616.5
2015-Jan-24 22:34N 43°56' E 009°21'1717.2
2015-Jan-24 21:33N 44°10' E 009°06'1615.7
2015-Jan-24 20:33N 44°24' E 008°56'2 1.9
2015-Jan-24 19:34N 44°24' E 008°53'0 0.0
2015-Jan-24 18:33N 44°24' E 008°53'0 0.0
2015-Jan-24 17:34N 44°24' E 008°53'0 0.0
2015-Jan-24 16:33N 44°24' E 008°53'0 0.0
2015-Jan-24 15:33N 44°24' E 008°53'0 0.0
2015-Jan-24 14:33N 44°24' E 008°53'0 0.0
2015-Jan-24 13:33N 44°24' E 008°53'0 0.0
2015-Jan-24 12:34N 44°24' E 008°53'0 0.0
2015-Jan-24 11:34N 44°24' E 008°53'4 3.8
2015-Jan-24 10:34N 44°22' E 008°58'1515.0
2015-Jan-24 09:34N 44°10' E 009°11'1918.7
2015-Jan-24 08:33N 43°56' E 009°28'1919.1
2015-Jan-24 07:33N 43°42' E 009°45'1918.7
2015-Jan-24 06:34N 43°28' E 010°03'1818.5
2015-Jan-24 05:33N 43°12' E 010°15'19118.3
2015-Jan-23 19:08N 40°58' E 013°19'1119.1
2015-Jan-23 18:33N 40°52' E 013°30'1919.0
2015-Jan-23 17:33N 40°37' E 013°45'2018.7
2015-Jan-23 16:29N 40°20' E 014°00'14518.2
2015-Jan-23 08:33N 38°19' E 015°42'1717.4
2015-Jan-23 07:33N 38°03' E 015°33'159 3.2
2015-Jan-21 05:33N 40°24' E 013°56'1817.7
2015-Jan-21 04:33N 40°38' E 013°43'1817.6
2015-Jan-21 03:33N 40°52' E 013°29'19216.8
2015-Jan-20 16:06N 43°06' E 010°24'917.1
2015-Jan-20 15:33N 43°15' E 010°19'1716.6
2015-Jan-20 14:33N 43°31' E 010°12'6 6.1
2015-Jan-20 13:33N 43°35' E 010°18'0 0.0
2015-Jan-20 12:33N 43°35' E 010°18'0 0.0
2015-Jan-20 11:33N 43°35' E 010°18'0 0.0
2015-Jan-20 10:33N 43°35' E 010°18'0 0.0
2015-Jan-20 09:33N 43°35' E 010°18'0 0.0
2015-Jan-20 08:33N 43°35' E 010°18'0 0.0
2015-Jan-20 07:33N 43°35' E 010°18'0 0.0
2015-Jan-20 06:33N 43°35' E 010°18'4 3.8
2015-Jan-20 05:33N 43°32' E 010°15'1010.1
2015-Jan-20 04:33N 43°31' E 010°02'1717.2
2015-Jan-20 03:33N 43°42' E 009°43'1716.9
2015-Jan-20 02:33N 43°54' E 009°28'1616.2
2015-Jan-20 01:33N 44°07' E 009°13'1616.6
2015-Jan-20 00:34N 44°20' E 008°59'6 5.9
2015-Jan-19 23:31N 44°24' E 008°53'0 0.0
2015-Jan-19 22:31N 44°24' E 008°53'0 0.0
2015-Jan-19 21:31N 44°24' E 008°53'0 0.0
2015-Jan-19 20:31N 44°24' E 008°53'0 0.0
2015-Jan-19 19:31N 44°24' E 008°53'0 0.0
2015-Jan-19 18:31N 44°24' E 008°53'0 0.0
2015-Jan-19 17:31N 44°24' E 008°53'0 0.0
2015-Jan-19 16:31N 44°24' E 008°53'0 0.0
2015-Jan-19 15:31N 44°24' E 008°53'0 0.0
2015-Jan-19 14:31N 44°24' E 008°53'0 0.0
2015-Jan-19 13:31N 44°24' E 008°53'0 0.0
2015-Jan-19 12:31N 44°24' E 008°53'0 0.0
2015-Jan-19 11:31N 44°24' E 008°53'2 1.8
2015-Jan-19 10:34N 44°24' E 008°56'1413.8
2015-Jan-19 09:34N 44°12' E 009°06'1717.5
2015-Jan-19 08:34N 43°57' E 009°18'1817.9
2015-Jan-19 07:34N 43°41' E 009°30'1817.9
2015-Jan-19 06:33N 43°26' E 009°43'1817.7
2015-Jan-19 05:33N 43°11' E 009°55'20617.2
2015-Jan-18 17:33N 40°55' E 013°24'1818.0
2015-Jan-18 16:34N 40°41' E 013°40'1818.0
2015-Jan-18 15:33N 40°27' E 013°54'1717.2
2015-Jan-18 14:33N 40°13' E 014°07'13816.8
2015-Jan-18 06:20N 38°14' E 015°37'149 6.2
2015-Jan-17 06:05N 35°54' E 014°32'3 4.8
2015-Jan-17 05:31N 35°57' E 014°33'1515.7
2015-Jan-17 04:34N 36°09' E 014°43'1818.4
2015-Jan-17 03:34N 36°23' E 014°58'23410.6
2015-Jan-16 05:27N 40°14' E 014°05'1617.6
2015-Jan-16 04:33N 40°27' E 013°53'1717.6
2015-Jan-16 03:33N 40°41' E 013°40'1817.7
2015-Jan-16 02:34N 40°55' E 013°25'  
Track history (hours):
 
Tides and Currents Weather Stations Pressure Air Temp Water Temp Dewpoint Dewpoint Depression Visibility Wind Speed Wind Dir Waves Ship Positions

Eurocargo Venezia

Last reported at 2015-Jan-26 01:32 UTC. Time now 2015-Jan-26 20:29 UTC.
Position N 38°04' E 015°32'.

Length 200 m; draft 7.4 m.

Type: Ship (hazmat cat A). MMSI: 247297200.

Date/timePositionNaut miles runAvg speedWind from/ knotsBaromVisibWave heightAir tempDewpointWater temp
2015-Jan-26 01:32N 38°04' E 015°32'1614.6
2015-Jan-26 00:25N 38°19' E 015°38'13917.4
2015-Jan-25 16:26N 40°17' E 014°03'1517.3
2015-Jan-25 15:34N 40°29' E 013°51'1717.2
2015-Jan-25 14:33N 40°43' E 013°38'1716.5
2015-Jan-25 13:32N 40°56' E 013°23'16217.1
2015-Jan-25 04:05N 42°42' E 010°39'1417.4
2015-Jan-25 03:18N 42°54' E 010°29'1317.5
2015-Jan-25 02:33N 43°05' E 010°20'1717.3
2015-Jan-25 01:34N 43°20' E 010°09'1717.0
2015-Jan-25 00:34N 43°33' E 009°54'1716.8
2015-Jan-24 23:34N 43°45' E 009°37'1616.5
2015-Jan-24 22:34N 43°56' E 009°21'1717.2
2015-Jan-24 21:33N 44°10' E 009°06'1615.7
2015-Jan-24 20:33N 44°24' E 008°56'2 1.9
2015-Jan-24 19:34N 44°24' E 008°53'0 0.0
2015-Jan-24 18:33N 44°24' E 008°53'0 0.0
2015-Jan-24 17:34N 44°24' E 008°53'0 0.0
2015-Jan-24 16:33N 44°24' E 008°53'0 0.0
2015-Jan-24 15:33N 44°24' E 008°53'0 0.0
2015-Jan-24 14:33N 44°24' E 008°53'0 0.0
2015-Jan-24 13:33N 44°24' E 008°53'0 0.0
2015-Jan-24 12:34N 44°24' E 008°53'0 0.0
2015-Jan-24 11:34N 44°24' E 008°53'4 3.8
2015-Jan-24 10:34N 44°22' E 008°58'1515.0
2015-Jan-24 09:34N 44°10' E 009°11'1918.7
2015-Jan-24 08:33N 43°56' E 009°28'1919.1
2015-Jan-24 07:33N 43°42' E 009°45'1918.7
2015-Jan-24 06:34N 43°28' E 010°03'1818.5
2015-Jan-24 05:33N 43°12' E 010°15'19118.3
2015-Jan-23 19:08N 40°58' E 013°19'1119.1
2015-Jan-23 18:33N 40°52' E 013°30'1919.0
2015-Jan-23 17:33N 40°37' E 013°45'2018.7
2015-Jan-23 16:29N 40°20' E 014°00'14518.2
2015-Jan-23 08:33N 38°19' E 015°42'1717.4
2015-Jan-23 07:33N 38°03' E 015°33'159 3.2
2015-Jan-21 05:33N 40°24' E 013°56'1817.7
2015-Jan-21 04:33N 40°38' E 013°43'1817.6
2015-Jan-21 03:33N 40°52' E 013°29'19216.8
2015-Jan-20 16:06N 43°06' E 010°24'917.1
2015-Jan-20 15:33N 43°15' E 010°19'1716.6
2015-Jan-20 14:33N 43°31' E 010°12'6 6.1
2015-Jan-20 13:33N 43°35' E 010°18'0 0.0
2015-Jan-20 12:33N 43°35' E 010°18'0 0.0
2015-Jan-20 11:33N 43°35' E 010°18'0 0.0
2015-Jan-20 10:33N 43°35' E 010°18'0 0.0
2015-Jan-20 09:33N 43°35' E 010°18'0 0.0
2015-Jan-20 08:33N 43°35' E 010°18'0 0.0
2015-Jan-20 07:33N 43°35' E 010°18'0 0.0
2015-Jan-20 06:33N 43°35' E 010°18'4 3.8
2015-Jan-20 05:33N 43°32' E 010°15'1010.1
2015-Jan-20 04:33N 43°31' E 010°02'1717.2
2015-Jan-20 03:33N 43°42' E 009°43'1716.9
2015-Jan-20 02:33N 43°54' E 009°28'1616.2
2015-Jan-20 01:33N 44°07' E 009°13'1616.6
2015-Jan-20 00:34N 44°20' E 008°59'6 5.9
2015-Jan-19 23:31N 44°24' E 008°53'0 0.0
2015-Jan-19 22:31N 44°24' E 008°53'0 0.0
2015-Jan-19 21:31N 44°24' E 008°53'0 0.0
2015-Jan-19 20:31N 44°24' E 008°53'0 0.0
2015-Jan-19 19:31N 44°24' E 008°53'0 0.0
2015-Jan-19 18:31N 44°24' E 008°53'0 0.0
2015-Jan-19 17:31N 44°24' E 008°53'0 0.0
2015-Jan-19 16:31N 44°24' E 008°53'0 0.0
2015-Jan-19 15:31N 44°24' E 008°53'0 0.0
2015-Jan-19 14:31N 44°24' E 008°53'0 0.0
2015-Jan-19 13:31N 44°24' E 008°53'0 0.0
2015-Jan-19 12:31N 44°24' E 008°53'0 0.0
2015-Jan-19 11:31N 44°24' E 008°53'2 1.8
2015-Jan-19 10:34N 44°24' E 008°56'1413.8
2015-Jan-19 09:34N 44°12' E 009°06'1717.5
2015-Jan-19 08:34N 43°57' E 009°18'1817.9
2015-Jan-19 07:34N 43°41' E 009°30'1817.9
2015-Jan-19 06:33N 43°26' E 009°43'1817.7
2015-Jan-19 05:33N 43°11' E 009°55'20617.2
2015-Jan-18 17:33N 40°55' E 013°24'1818.0
2015-Jan-18 16:34N 40°41' E 013°40'1818.0
2015-Jan-18 15:33N 40°27' E 013°54'1717.2
2015-Jan-18 14:33N 40°13' E 014°07'13816.8
2015-Jan-18 06:20N 38°14' E 015°37'149 6.2
2015-Jan-17 06:05N 35°54' E 014°32'3 4.8
2015-Jan-17 05:31N 35°57' E 014°33'1515.7
2015-Jan-17 04:34N 36°09' E 014°43'1818.4
2015-Jan-17 03:34N 36°23' E 014°58'23410.6
2015-Jan-16 05:27N 40°14' E 014°05'1617.6
2015-Jan-16 04:33N 40°27' E 013°53'1717.6
2015-Jan-16 03:33N 40°41' E 013°40'1817.7
2015-Jan-16 02:34N 40°55' E 013°25'  

Dump ship's entire track history